sensor_id;sensor_type;location;lat;lon;timestamp;P1;durP1;ratioP1;P2;durP2;ratioP2
11447;SDS011;43755;49.736;8.734;2023-02-05T00:00:30;24.63;;;12.77;;
11447;SDS011;43755;49.736;8.734;2023-02-05T00:02:31;23.80;;;12.77;;
11447;SDS011;43755;49.736;8.734;2023-02-05T00:04:33;15.93;;;9.65;;
11447;SDS011;43755;49.736;8.734;2023-02-05T00:06:35;20.60;;;10.20;;
11447;SDS011;43755;49.736;8.734;2023-02-05T00:08:38;17.75;;;8.60;;
11447;SDS011;43755;49.736;8.734;2023-02-05T00:10:39;14.38;;;8.13;;
11447;SDS011;43755;49.736;8.734;2023-02-05T00:12:41;19.80;;;9.93;;
11447;SDS011;43755;49.736;8.734;2023-02-05T00:14:42;22.58;;;13.35;;
11447;SDS011;43755;49.736;8.734;2023-02-05T00:16:43;21.77;;;10.50;;
11447;SDS011;43755;49.736;8.734;2023-02-05T00:18:45;23.23;;;12.15;;
11447;SDS011;43755;49.736;8.734;2023-02-05T00:20:46;17.85;;;10.60;;
11447;SDS011;43755;49.736;8.734;2023-02-05T00:22:48;22.42;;;10.30;;
11447;SDS011;43755;49.736;8.734;2023-02-05T00:24:51;15.38;;;8.98;;
11447;SDS011;43755;49.736;8.734;2023-02-05T00:26:52;16.88;;;7.85;;
11447;SDS011;43755;49.736;8.734;2023-02-05T00:28:53;14.82;;;6.93;;
11447;SDS011;43755;49.736;8.734;2023-02-05T00:30:55;13.75;;;6.68;;
11447;SDS011;43755;49.736;8.734;2023-02-05T00:32:56;13.35;;;7.40;;
11447;SDS011;43755;49.736;8.734;2023-02-05T00:34:58;36.25;;;16.83;;
11447;SDS011;43755;49.736;8.734;2023-02-05T00:36:59;26.63;;;12.05;;
11447;SDS011;43755;49.736;8.734;2023-02-05T00:39:00;21.63;;;11.23;;
11447;SDS011;43755;49.736;8.734;2023-02-05T00:41:03;11.98;;;5.28;;
11447;SDS011;43755;49.736;8.734;2023-02-05T00:43:05;9.35;;;4.47;;
11447;SDS011;43755;49.736;8.734;2023-02-05T00:45:07;12.50;;;4.38;;
11447;SDS011;43755;49.736;8.734;2023-02-05T00:47:09;11.77;;;6.22;;
11447;SDS011;43755;49.736;8.734;2023-02-05T00:49:10;13.05;;;6.35;;
11447;SDS011;43755;49.736;8.734;2023-02-05T00:51:11;11.65;;;6.93;;
11447;SDS011;43755;49.736;8.734;2023-02-05T00:53:13;14.80;;;7.53;;
11447;SDS011;43755;49.736;8.734;2023-02-05T00:55:14;12.23;;;7.72;;
11447;SDS011;43755;49.736;8.734;2023-02-05T00:57:17;12.32;;;7.57;;
11447;SDS011;43755;49.736;8.734;2023-02-05T00:59:23;9.65;;;5.95;;
11447;SDS011;43755;49.736;8.734;2023-02-05T01:01:24;6.68;;;4.25;;
11447;SDS011;43755;49.736;8.734;2023-02-05T01:03:26;9.43;;;4.18;;
11447;SDS011;43755;49.736;8.734;2023-02-05T01:05:28;8.88;;;3.95;;
11447;SDS011;43755;49.736;8.734;2023-02-05T01:07:29;9.52;;;4.30;;
11447;SDS011;43755;49.736;8.734;2023-02-05T01:09:31;6.95;;;4.00;;
11447;SDS011;43755;49.736;8.734;2023-02-05T01:11:32;9.20;;;4.35;;
11447;SDS011;43755;49.736;8.734;2023-02-05T01:13:35;8.75;;;4.78;;
11447;SDS011;43755;49.736;8.734;2023-02-05T01:15:36;5.40;;;3.08;;
11447;SDS011;43755;49.736;8.734;2023-02-05T01:17:38;5.45;;;3.38;;
11447;SDS011;43755;49.736;8.734;2023-02-05T01:19:39;6.35;;;2.58;;
11447;SDS011;43755;49.736;8.734;2023-02-05T01:21:41;5.75;;;2.70;;
11447;SDS011;43755;49.736;8.734;2023-02-05T01:23:42;6.80;;;2.92;;
11447;SDS011;43755;49.736;8.734;2023-02-05T01:25:44;16.25;;;7.45;;
11447;SDS011;43755;49.736;8.734;2023-02-05T01:27:45;11.48;;;5.35;;
11447;SDS011;43755;49.736;8.734;2023-02-05T01:29:48;9.32;;;4.63;;
11447;SDS011;43755;49.736;8.734;2023-02-05T01:31:49;7.00;;;2.95;;
11447;SDS011;43755;49.736;8.734;2023-02-05T01:33:51;4.28;;;2.25;;
11447;SDS011;43755;49.736;8.734;2023-02-05T01:35:52;6.45;;;2.80;;
11447;SDS011;43755;49.736;8.734;2023-02-05T01:37:54;3.33;;;1.48;;
11447;SDS011;43755;49.736;8.734;2023-02-05T01:39:55;4.97;;;2.10;;
11447;SDS011;43755;49.736;8.734;2023-02-05T01:41:57;2.63;;;1.90;;
11447;SDS011;43755;49.736;8.734;2023-02-05T01:44:05;5.53;;;2.15;;
11447;SDS011;43755;49.736;8.734;2023-02-05T01:46:20;4.32;;;1.95;;
11447;SDS011;43755;49.736;8.734;2023-02-05T01:48:26;3.42;;;1.95;;
11447;SDS011;43755;49.736;8.734;2023-02-05T01:50:33;6.07;;;1.80;;
11447;SDS011;43755;49.736;8.734;2023-02-05T01:52:37;3.55;;;1.70;;
11447;SDS011;43755;49.736;8.734;2023-02-05T01:54:40;2.92;;;1.92;;
11447;SDS011;43755;49.736;8.734;2023-02-05T01:56:48;3.70;;;1.80;;
11447;SDS011;43755;49.736;8.734;2023-02-05T01:58:54;5.07;;;2.13;;
11447;SDS011;43755;49.736;8.734;2023-02-05T02:00:58;2.78;;;1.73;;
11447;SDS011;43755;49.736;8.734;2023-02-05T02:03:01;7.68;;;1.77;;
11447;SDS011;43755;49.736;8.734;2023-02-05T02:05:06;4.63;;;1.80;;
11447;SDS011;43755;49.736;8.734;2023-02-05T02:07:11;4.07;;;1.88;;
11447;SDS011;43755;49.736;8.734;2023-02-05T02:09:14;3.45;;;1.50;;
11447;SDS011;43755;49.736;8.734;2023-02-05T02:11:15;3.88;;;1.77;;
11447;SDS011;43755;49.736;8.734;2023-02-05T02:13:21;6.65;;;2.17;;
11447;SDS011;43755;49.736;8.734;2023-02-05T02:15:26;2.55;;;1.50;;
11447;SDS011;43755;49.736;8.734;2023-02-05T02:17:28;2.67;;;1.50;;
11447;SDS011;43755;49.736;8.734;2023-02-05T02:19:36;5.07;;;1.77;;
11447;SDS011;43755;49.736;8.734;2023-02-05T02:29:44;2.75;;;1.60;;
11447;SDS011;43755;49.736;8.734;2023-02-05T02:31:50;4.63;;;1.77;;
11447;SDS011;43755;49.736;8.734;2023-02-05T02:33:59;3.97;;;1.60;;
11447;SDS011;43755;49.736;8.734;2023-02-05T02:36:04;3.35;;;1.83;;
11447;SDS011;43755;49.736;8.734;2023-02-05T02:38:11;2.40;;;1.50;;
11447;SDS011;43755;49.736;8.734;2023-02-05T02:40:19;3.25;;;1.73;;
11447;SDS011;43755;49.736;8.734;2023-02-05T02:42:25;5.55;;;1.95;;
11447;SDS011;43755;49.736;8.734;2023-02-05T02:44:32;2.67;;;1.60;;
11447;SDS011;43755;49.736;8.734;2023-02-05T02:46:39;2.63;;;1.50;;
11447;SDS011;43755;49.736;8.734;2023-02-05T02:48:44;3.85;;;1.73;;
11447;SDS011;43755;49.736;8.734;2023-02-05T02:50:48;3.88;;;1.60;;
11447;SDS011;43755;49.736;8.734;2023-02-05T02:52:53;2.60;;;1.67;;
11447;SDS011;43755;49.736;8.734;2023-02-05T02:54:56;2.15;;;1.50;;
11447;SDS011;43755;49.736;8.734;2023-02-05T02:57:05;3.05;;;1.70;;
11447;SDS011;43755;49.736;8.734;2023-02-05T02:59:09;7.18;;;1.70;;
11447;SDS011;43755;49.736;8.734;2023-02-05T03:01:13;3.80;;;1.50;;
11447;SDS011;43755;49.736;8.734;2023-02-05T03:03:19;4.35;;;1.98;;
11447;SDS011;43755;49.736;8.734;2023-02-05T03:05:24;5.57;;;2.00;;
11447;SDS011;43755;49.736;8.734;2023-02-05T03:07:28;3.95;;;1.80;;
11447;SDS011;43755;49.736;8.734;2023-02-05T03:09:34;3.08;;;1.40;;
11447;SDS011;43755;49.736;8.734;2023-02-05T03:11:42;3.72;;;1.50;;
11447;SDS011;43755;49.736;8.734;2023-02-05T03:13:43;2.58;;;1.60;;
11447;SDS011;43755;49.736;8.734;2023-02-05T03:15:45;5.15;;;2.05;;
11447;SDS011;43755;49.736;8.734;2023-02-05T03:17:47;3.40;;;1.60;;
11447;SDS011;43755;49.736;8.734;2023-02-05T03:19:54;4.97;;;2.08;;
11447;SDS011;43755;49.736;8.734;2023-02-05T03:21:59;4.55;;;1.63;;
11447;SDS011;43755;49.736;8.734;2023-02-05T03:24:03;4.82;;;1.80;;
11447;SDS011;43755;49.736;8.734;2023-02-05T03:26:17;2.08;;;1.50;;
11447;SDS011;43755;49.736;8.734;2023-02-05T03:28:22;3.95;;;1.83;;
11447;SDS011;43755;49.736;8.734;2023-02-05T03:30:26;5.50;;;1.90;;
11447;SDS011;43755;49.736;8.734;2023-02-05T03:32:35;3.42;;;1.65;;
11447;SDS011;43755;49.736;8.734;2023-02-05T03:34:48;4.05;;;1.70;;
11447;SDS011;43755;49.736;8.734;2023-02-05T03:37:02;5.82;;;2.42;;
11447;SDS011;43755;49.736;8.734;2023-02-05T03:39:12;5.53;;;1.92;;
11447;SDS011;43755;49.736;8.734;2023-02-05T03:41:27;4.57;;;2.30;;
11447;SDS011;43755;49.736;8.734;2023-02-05T03:43:55;4.38;;;1.67;;
11447;SDS011;43755;49.736;8.734;2023-02-05T03:46:08;7.20;;;2.10;;
11447;SDS011;43755;49.736;8.734;2023-02-05T03:48:19;4.25;;;1.80;;
11447;SDS011;43755;49.736;8.734;2023-02-05T03:50:28;5.90;;;1.80;;
11447;SDS011;43755;49.736;8.734;2023-02-05T03:52:40;5.03;;;2.00;;
11447;SDS011;43755;49.736;8.734;2023-02-05T03:54:45;7.05;;;2.17;;
11447;SDS011;43755;49.736;8.734;2023-02-05T03:56:52;1.83;;;1.50;;
11447;SDS011;43755;49.736;8.734;2023-02-05T03:58:59;4.50;;;1.77;;
11447;SDS011;43755;49.736;8.734;2023-02-05T04:01:02;2.63;;;1.50;;
11447;SDS011;43755;49.736;8.734;2023-02-05T04:03:04;3.13;;;1.67;;
11447;SDS011;43755;49.736;8.734;2023-02-05T04:05:06;2.80;;;1.58;;
11447;SDS011;43755;49.736;8.734;2023-02-05T04:07:08;4.90;;;2.00;;
11447;SDS011;43755;49.736;8.734;2023-02-05T04:09:11;6.85;;;2.45;;
11447;SDS011;43755;49.736;8.734;2023-02-05T04:11:12;4.20;;;2.20;;
11447;SDS011;43755;49.736;8.734;2023-02-05T04:13:14;4.00;;;1.75;;
11447;SDS011;43755;49.736;8.734;2023-02-05T04:15:15;4.80;;;1.42;;
11447;SDS011;43755;49.736;8.734;2023-02-05T04:17:17;7.07;;;1.80;;
11447;SDS011;43755;49.736;8.734;2023-02-05T04:19:18;6.90;;;2.00;;
11447;SDS011;43755;49.736;8.734;2023-02-05T04:21:20;4.93;;;1.75;;
11447;SDS011;43755;49.736;8.734;2023-02-05T04:23:21;4.95;;;2.00;;
11447;SDS011;43755;49.736;8.734;2023-02-05T04:25:24;5.00;;;1.70;;
11447;SDS011;43755;49.736;8.734;2023-02-05T04:27:25;7.55;;;1.90;;
11447;SDS011;43755;49.736;8.734;2023-02-05T04:29:27;5.30;;;1.60;;
11447;SDS011;43755;49.736;8.734;2023-02-05T04:31:28;4.38;;;1.52;;
11447;SDS011;43755;49.736;8.734;2023-02-05T04:33:30;6.50;;;1.90;;
11447;SDS011;43755;49.736;8.734;2023-02-05T04:35:31;4.75;;;1.90;;
11447;SDS011;43755;49.736;8.734;2023-02-05T04:37:32;5.80;;;1.80;;
11447;SDS011;43755;49.736;8.734;2023-02-05T04:39:34;4.82;;;2.00;;
11447;SDS011;43755;49.736;8.734;2023-02-05T04:41:36;4.57;;;1.73;;
11447;SDS011;43755;49.736;8.734;2023-02-05T04:43:38;8.50;;;2.05;;
11447;SDS011;43755;49.736;8.734;2023-02-05T04:45:39;5.30;;;2.10;;
11447;SDS011;43755;49.736;8.734;2023-02-05T04:47:41;6.07;;;1.88;;
11447;SDS011;43755;49.736;8.734;2023-02-05T04:49:42;4.40;;;1.80;;
11447;SDS011;43755;49.736;8.734;2023-02-05T04:51:43;5.25;;;1.63;;
11447;SDS011;43755;49.736;8.734;2023-02-05T04:53:45;4.85;;;1.77;;
11447;SDS011;43755;49.736;8.734;2023-02-05T04:55:47;3.60;;;1.83;;
11447;SDS011;43755;49.736;8.734;2023-02-05T04:57:49;6.30;;;1.85;;
11447;SDS011;43755;49.736;8.734;2023-02-05T04:59:51;8.68;;;2.50;;
11447;SDS011;43755;49.736;8.734;2023-02-05T05:01:52;5.80;;;1.90;;
11447;SDS011;43755;49.736;8.734;2023-02-05T05:03:54;5.70;;;1.90;;
11447;SDS011;43755;49.736;8.734;2023-02-05T05:05:55;5.00;;;1.77;;
11447;SDS011;43755;49.736;8.734;2023-02-05T05:07:58;3.78;;;1.77;;
11447;SDS011;43755;49.736;8.734;2023-02-05T05:09:59;4.15;;;1.70;;
11447;SDS011;43755;49.736;8.734;2023-02-05T05:12:01;5.45;;;1.98;;
11447;SDS011;43755;49.736;8.734;2023-02-05T05:14:04;4.70;;;1.80;;
11447;SDS011;43755;49.736;8.734;2023-02-05T05:16:05;5.72;;;1.70;;
11447;SDS011;43755;49.736;8.734;2023-02-05T05:18:07;4.85;;;1.63;;
11447;SDS011;43755;49.736;8.734;2023-02-05T05:20:09;6.20;;;1.70;;
11447;SDS011;43755;49.736;8.734;2023-02-05T05:22:11;4.47;;;1.70;;
11447;SDS011;43755;49.736;8.734;2023-02-05T05:24:12;5.00;;;1.95;;
11447;SDS011;43755;49.736;8.734;2023-02-05T05:26:13;5.90;;;1.90;;
11447;SDS011;43755;49.736;8.734;2023-02-05T05:28:15;7.53;;;2.10;;
11447;SDS011;43755;49.736;8.734;2023-02-05T05:30:18;4.47;;;1.63;;
11447;SDS011;43755;49.736;8.734;2023-02-05T05:32:20;6.57;;;1.92;;
11447;SDS011;43755;49.736;8.734;2023-02-05T05:34:21;5.35;;;1.73;;
11447;SDS011;43755;49.736;8.734;2023-02-05T05:36:23;3.90;;;1.60;;
11447;SDS011;43755;49.736;8.734;2023-02-05T05:38:24;5.10;;;1.67;;
11447;SDS011;43755;49.736;8.734;2023-02-05T05:40:26;6.43;;;1.92;;
11447;SDS011;43755;49.736;8.734;2023-02-05T05:42:45;5.25;;;1.60;;
11447;SDS011;43755;49.736;8.734;2023-02-05T05:45:05;7.20;;;1.85;;
11447;SDS011;43755;49.736;8.734;2023-02-05T05:47:08;4.05;;;1.83;;
11447;SDS011;43755;49.736;8.734;2023-02-05T05:49:09;5.32;;;1.90;;
11447;SDS011;43755;49.736;8.734;2023-02-05T05:51:10;4.15;;;1.77;;
11447;SDS011;43755;49.736;8.734;2023-02-05T05:53:12;4.55;;;1.45;;
11447;SDS011;43755;49.736;8.734;2023-02-05T05:55:13;2.40;;;1.55;;
11447;SDS011;43755;49.736;8.734;2023-02-05T05:57:15;3.80;;;1.60;;
11447;SDS011;43755;49.736;8.734;2023-02-05T05:59:16;6.22;;;2.10;;
11447;SDS011;43755;49.736;8.734;2023-02-05T06:01:18;4.50;;;1.90;;
11447;SDS011;43755;49.736;8.734;2023-02-05T06:03:22;2.58;;;1.70;;
11447;SDS011;43755;49.736;8.734;2023-02-05T06:05:24;6.35;;;1.65;;
11447;SDS011;43755;49.736;8.734;2023-02-05T06:07:26;4.65;;;1.73;;
11447;SDS011;43755;49.736;8.734;2023-02-05T06:09:27;5.18;;;2.25;;
11447;SDS011;43755;49.736;8.734;2023-02-05T06:11:29;6.07;;;1.95;;
11447;SDS011;43755;49.736;8.734;2023-02-05T06:13:30;5.30;;;2.10;;
11447;SDS011;43755;49.736;8.734;2023-02-05T06:15:32;4.00;;;2.15;;
11447;SDS011;43755;49.736;8.734;2023-02-05T06:17:34;8.75;;;2.33;;
11447;SDS011;43755;49.736;8.734;2023-02-05T06:19:36;6.72;;;2.20;;
11447;SDS011;43755;49.736;8.734;2023-02-05T06:21:38;5.35;;;2.17;;
11447;SDS011;43755;49.736;8.734;2023-02-05T06:23:39;5.15;;;2.30;;
11447;SDS011;43755;49.736;8.734;2023-02-05T06:25:41;6.10;;;2.47;;
11447;SDS011;43755;49.736;8.734;2023-02-05T06:27:42;5.00;;;2.17;;
11447;SDS011;43755;49.736;8.734;2023-02-05T06:29:44;6.95;;;2.40;;
11447;SDS011;43755;49.736;8.734;2023-02-05T06:31:45;6.93;;;2.72;;
11447;SDS011;43755;49.736;8.734;2023-02-05T06:33:46;6.85;;;2.20;;
11447;SDS011;43755;49.736;8.734;2023-02-05T06:35:49;4.80;;;2.20;;
11447;SDS011;43755;49.736;8.734;2023-02-05T06:37:50;6.93;;;2.28;;
11447;SDS011;43755;49.736;8.734;2023-02-05T06:39:52;8.18;;;2.60;;
11447;SDS011;43755;49.736;8.734;2023-02-05T06:41:53;6.60;;;2.80;;
11447;SDS011;43755;49.736;8.734;2023-02-05T06:43:54;10.15;;;3.17;;
11447;SDS011;43755;49.736;8.734;2023-02-05T06:45:56;6.75;;;2.50;;
11447;SDS011;43755;49.736;8.734;2023-02-05T06:47:57;6.65;;;3.13;;
11447;SDS011;43755;49.736;8.734;2023-02-05T06:49:59;6.68;;;2.53;;
11447;SDS011;43755;49.736;8.734;2023-02-05T06:52:02;7.65;;;2.88;;
11447;SDS011;43755;49.736;8.734;2023-02-05T06:54:04;8.13;;;3.38;;
11447;SDS011;43755;49.736;8.734;2023-02-05T06:56:05;10.85;;;3.08;;
11447;SDS011;43755;49.736;8.734;2023-02-05T06:58:07;7.35;;;3.35;;
11447;SDS011;43755;49.736;8.734;2023-02-05T07:00:09;7.75;;;2.97;;
11447;SDS011;43755;49.736;8.734;2023-02-05T07:02:12;4.95;;;2.90;;
11447;SDS011;43755;49.736;8.734;2023-02-05T07:04:13;5.43;;;2.80;;
11447;SDS011;43755;49.736;8.734;2023-02-05T07:06:15;6.47;;;2.95;;
11447;SDS011;43755;49.736;8.734;2023-02-05T07:08:18;5.40;;;3.22;;
11447;SDS011;43755;49.736;8.734;2023-02-05T07:10:19;7.30;;;3.45;;
11447;SDS011;43755;49.736;8.734;2023-02-05T07:12:21;10.95;;;5.07;;
11447;SDS011;43755;49.736;8.734;2023-02-05T07:14:22;9.10;;;4.50;;
11447;SDS011;43755;49.736;8.734;2023-02-05T07:16:24;7.30;;;4.22;;
11447;SDS011;43755;49.736;8.734;2023-02-05T07:18:25;8.70;;;4.10;;
11447;SDS011;43755;49.736;8.734;2023-02-05T07:20:26;9.25;;;4.38;;
11447;SDS011;43755;49.736;8.734;2023-02-05T07:22:28;12.10;;;4.18;;
11447;SDS011;43755;49.736;8.734;2023-02-05T07:24:31;9.77;;;4.20;;
11447;SDS011;43755;49.736;8.734;2023-02-05T07:26:32;6.40;;;4.50;;
11447;SDS011;43755;49.736;8.734;2023-02-05T07:28:35;8.77;;;4.93;;
11447;SDS011;43755;49.736;8.734;2023-02-05T07:30:37;6.90;;;4.32;;
11447;SDS011;43755;49.736;8.734;2023-02-05T07:32:39;12.05;;;5.22;;
11447;SDS011;43755;49.736;8.734;2023-02-05T07:34:40;11.32;;;4.80;;
11447;SDS011;43755;49.736;8.734;2023-02-05T07:36:42;10.23;;;5.20;;
11447;SDS011;43755;49.736;8.734;2023-02-05T07:38:45;11.93;;;4.90;;
11447;SDS011;43755;49.736;8.734;2023-02-05T07:40:48;9.00;;;4.70;;
11447;SDS011;43755;49.736;8.734;2023-02-05T07:42:49;8.50;;;5.07;;
11447;SDS011;43755;49.736;8.734;2023-02-05T07:44:51;10.85;;;4.78;;
11447;SDS011;43755;49.736;8.734;2023-02-05T07:46:52;10.85;;;4.97;;
11447;SDS011;43755;49.736;8.734;2023-02-05T07:48:54;7.13;;;5.00;;
11447;SDS011;43755;49.736;8.734;2023-02-05T07:50:55;12.25;;;5.68;;
11447;SDS011;43755;49.736;8.734;2023-02-05T07:52:56;10.88;;;5.00;;
11447;SDS011;43755;49.736;8.734;2023-02-05T07:54:58;12.95;;;5.70;;
11447;SDS011;43755;49.736;8.734;2023-02-05T07:57:01;15.05;;;6.00;;
11447;SDS011;43755;49.736;8.734;2023-02-05T07:59:03;11.95;;;6.20;;
11447;SDS011;43755;49.736;8.734;2023-02-05T08:01:05;14.05;;;6.80;;
11447;SDS011;43755;49.736;8.734;2023-02-05T08:03:07;15.05;;;9.05;;
11447;SDS011;43755;49.736;8.734;2023-02-05T08:05:09;16.05;;;7.55;;
11447;SDS011;43755;49.736;8.734;2023-02-05T08:07:10;17.20;;;7.20;;
11447;SDS011;43755;49.736;8.734;2023-02-05T08:09:12;12.88;;;6.63;;
11447;SDS011;43755;49.736;8.734;2023-02-05T08:11:16;16.38;;;7.80;;
11447;SDS011;43755;49.736;8.734;2023-02-05T08:13:19;18.88;;;8.48;;
11447;SDS011;43755;49.736;8.734;2023-02-05T08:15:21;13.80;;;6.97;;
11447;SDS011;43755;49.736;8.734;2023-02-05T08:17:22;12.02;;;6.55;;
11447;SDS011;43755;49.736;8.734;2023-02-05T08:19:24;9.05;;;6.20;;
11447;SDS011;43755;49.736;8.734;2023-02-05T08:21:25;12.38;;;6.47;;
11447;SDS011;43755;49.736;8.734;2023-02-05T08:23:26;15.40;;;7.93;;
11447;SDS011;43755;49.736;8.734;2023-02-05T08:25:28;20.65;;;7.80;;
11447;SDS011;43755;49.736;8.734;2023-02-05T08:27:30;18.13;;;7.55;;
11447;SDS011;43755;49.736;8.734;2023-02-05T08:29:33;16.15;;;7.53;;
11447;SDS011;43755;49.736;8.734;2023-02-05T08:31:35;22.58;;;8.65;;
11447;SDS011;43755;49.736;8.734;2023-02-05T08:33:37;17.23;;;7.90;;
11447;SDS011;43755;49.736;8.734;2023-02-05T08:35:39;20.05;;;8.43;;
11447;SDS011;43755;49.736;8.734;2023-02-05T08:37:40;22.77;;;8.65;;
11447;SDS011;43755;49.736;8.734;2023-02-05T08:39:41;25.88;;;9.35;;
11447;SDS011;43755;49.736;8.734;2023-02-05T08:41:43;20.77;;;9.13;;
11447;SDS011;43755;49.736;8.734;2023-02-05T08:43:45;21.33;;;9.93;;
11447;SDS011;43755;49.736;8.734;2023-02-05T08:45:49;19.80;;;9.63;;
11447;SDS011;43755;49.736;8.734;2023-02-05T08:47:50;20.13;;;10.18;;
11447;SDS011;43755;49.736;8.734;2023-02-05T08:49:52;20.85;;;10.13;;
11447;SDS011;43755;49.736;8.734;2023-02-05T08:51:53;25.67;;;10.98;;
11447;SDS011;43755;49.736;8.734;2023-02-05T08:53:54;17.33;;;10.35;;
11447;SDS011;43755;49.736;8.734;2023-02-05T08:55:57;19.45;;;10.88;;
11447;SDS011;43755;49.736;8.734;2023-02-05T08:58:00;24.88;;;11.85;;
11447;SDS011;43755;49.736;8.734;2023-02-05T09:00:01;21.67;;;11.70;;
11447;SDS011;43755;49.736;8.734;2023-02-05T09:02:05;20.67;;;11.93;;
11447;SDS011;43755;49.736;8.734;2023-02-05T09:04:06;22.35;;;12.35;;
11447;SDS011;43755;49.736;8.734;2023-02-05T09:06:09;20.95;;;12.68;;
11447;SDS011;43755;49.736;8.734;2023-02-05T09:08:12;20.83;;;12.60;;
11447;SDS011;43755;49.736;8.734;2023-02-05T09:10:13;23.85;;;13.13;;
11447;SDS011;43755;49.736;8.734;2023-02-05T09:12:15;27.92;;;13.68;;
11447;SDS011;43755;49.736;8.734;2023-02-05T09:14:16;22.35;;;13.20;;
11447;SDS011;43755;49.736;8.734;2023-02-05T09:16:18;24.98;;;13.38;;
11447;SDS011;43755;49.736;8.734;2023-02-05T09:18:21;27.98;;;14.73;;
11447;SDS011;43755;49.736;8.734;2023-02-05T09:20:22;23.67;;;14.02;;
11447;SDS011;43755;49.736;8.734;2023-02-05T09:22:24;23.70;;;13.52;;
11447;SDS011;43755;49.736;8.734;2023-02-05T09:24:25;27.70;;;14.70;;
11447;SDS011;43755;49.736;8.734;2023-02-05T09:26:26;27.08;;;14.32;;
11447;SDS011;43755;49.736;8.734;2023-02-05T09:28:28;23.33;;;13.98;;
11447;SDS011;43755;49.736;8.734;2023-02-05T09:30:29;22.60;;;14.35;;
11447;SDS011;43755;49.736;8.734;2023-02-05T09:32:31;24.25;;;13.45;;
11447;SDS011;43755;49.736;8.734;2023-02-05T09:34:33;25.33;;;13.10;;
11447;SDS011;43755;49.736;8.734;2023-02-05T09:36:35;23.02;;;13.45;;
11447;SDS011;43755;49.736;8.734;2023-02-05T09:38:36;24.10;;;12.57;;
11447;SDS011;43755;49.736;8.734;2023-02-05T09:40:39;21.30;;;12.20;;
11447;SDS011;43755;49.736;8.734;2023-02-05T09:42:50;25.10;;;13.15;;
11447;SDS011;43755;49.736;8.734;2023-02-05T09:45:04;22.38;;;13.68;;
11447;SDS011;43755;49.736;8.734;2023-02-05T09:47:18;22.45;;;13.45;;
11447;SDS011;43755;49.736;8.734;2023-02-05T09:49:24;18.77;;;14.30;;
11447;SDS011;43755;49.736;8.734;2023-02-05T09:51:31;20.98;;;14.68;;
11447;SDS011;43755;49.736;8.734;2023-02-05T09:53:38;19.52;;;14.63;;
11447;SDS011;43755;49.736;8.734;2023-02-05T09:55:43;22.50;;;14.82;;
11447;SDS011;43755;49.736;8.734;2023-02-05T09:57:47;24.92;;;15.10;;
11447;SDS011;43755;49.736;8.734;2023-02-05T09:59:51;22.88;;;15.77;;
11447;SDS011;43755;49.736;8.734;2023-02-05T10:01:54;21.15;;;15.82;;
11447;SDS011;43755;49.736;8.734;2023-02-05T10:03:58;24.10;;;16.30;;
11447;SDS011;43755;49.736;8.734;2023-02-05T10:06:09;23.70;;;16.02;;
11447;SDS011;43755;49.736;8.734;2023-02-05T10:08:21;24.77;;;15.98;;
11447;SDS011;43755;49.736;8.734;2023-02-05T10:10:32;22.45;;;15.63;;
11447;SDS011;43755;49.736;8.734;2023-02-05T10:12:42;21.67;;;15.40;;
11447;SDS011;43755;49.736;8.734;2023-02-05T10:14:59;21.40;;;16.20;;
11447;SDS011;43755;49.736;8.734;2023-02-05T10:17:17;24.35;;;16.48;;
11447;SDS011;43755;49.736;8.734;2023-02-05T10:19:38;21.20;;;16.02;;
11447;SDS011;43755;49.736;8.734;2023-02-05T10:21:54;24.20;;;17.02;;
11447;SDS011;43755;49.736;8.734;2023-02-05T10:24:09;21.60;;;16.13;;
11447;SDS011;43755;49.736;8.734;2023-02-05T10:26:23;25.38;;;17.08;;
11447;SDS011;43755;49.736;8.734;2023-02-05T10:31:03;22.08;;;16.75;;
11447;SDS011;43755;49.736;8.734;2023-02-05T10:33:15;21.63;;;16.38;;
11447;SDS011;43755;49.736;8.734;2023-02-05T10:35:20;23.88;;;17.48;;
11447;SDS011;43755;49.736;8.734;2023-02-05T10:37:29;21.67;;;16.88;;
11447;SDS011;43755;49.736;8.734;2023-02-05T10:39:36;24.83;;;17.15;;
11447;SDS011;43755;49.736;8.734;2023-02-05T10:41:38;21.83;;;16.13;;
11447;SDS011;43755;49.736;8.734;2023-02-05T10:43:44;23.20;;;16.65;;
11447;SDS011;43755;49.736;8.734;2023-02-05T10:45:49;24.58;;;17.27;;
11447;SDS011;43755;49.736;8.734;2023-02-05T10:50:35;21.67;;;16.15;;
11447;SDS011;43755;49.736;8.734;2023-02-05T10:52:47;22.77;;;16.83;;
11447;SDS011;43755;49.736;8.734;2023-02-05T10:54:50;20.65;;;17.55;;
11447;SDS011;43755;49.736;8.734;2023-02-05T10:56:52;20.65;;;16.52;;
11447;SDS011;43755;49.736;8.734;2023-02-05T10:58:54;19.08;;;16.45;;
11447;SDS011;43755;49.736;8.734;2023-02-05T11:00:56;18.95;;;15.65;;
11447;SDS011;43755;49.736;8.734;2023-02-05T11:02:59;19.73;;;16.50;;
11447;SDS011;43755;49.736;8.734;2023-02-05T11:05:02;18.15;;;14.85;;
11447;SDS011;43755;49.736;8.734;2023-02-05T11:07:08;18.25;;;16.15;;
11447;SDS011;43755;49.736;8.734;2023-02-05T11:09:26;17.35;;;14.75;;
11447;SDS011;43755;49.736;8.734;2023-02-05T11:11:31;19.95;;;15.80;;
11447;SDS011;43755;49.736;8.734;2023-02-05T11:13:33;18.80;;;15.15;;
11447;SDS011;43755;49.736;8.734;2023-02-05T11:15:52;16.55;;;13.90;;
11447;SDS011;43755;49.736;8.734;2023-02-05T11:17:55;16.67;;;14.73;;
11447;SDS011;43755;49.736;8.734;2023-02-05T11:19:59;15.18;;;13.40;;
11447;SDS011;43755;49.736;8.734;2023-02-05T11:22:03;14.93;;;12.98;;
11447;SDS011;43755;49.736;8.734;2023-02-05T11:24:05;14.88;;;13.30;;
11447;SDS011;43755;49.736;8.734;2023-02-05T11:26:08;15.63;;;12.73;;
11447;SDS011;43755;49.736;8.734;2023-02-05T11:28:14;14.90;;;13.20;;
11447;SDS011;43755;49.736;8.734;2023-02-05T11:30:22;14.18;;;11.98;;
11447;SDS011;43755;49.736;8.734;2023-02-05T11:32:30;12.80;;;11.50;;
11447;SDS011;43755;49.736;8.734;2023-02-05T11:34:34;12.35;;;10.90;;
11447;SDS011;43755;49.736;8.734;2023-02-05T11:36:36;12.27;;;10.93;;
11447;SDS011;43755;49.736;8.734;2023-02-05T11:38:41;10.70;;;9.60;;
11447;SDS011;43755;49.736;8.734;2023-02-05T11:40:49;11.68;;;10.55;;
11447;SDS011;43755;49.736;8.734;2023-02-05T11:43:02;10.75;;;9.13;;
11447;SDS011;43755;49.736;8.734;2023-02-05T11:45:14;11.25;;;9.50;;
11447;SDS011;43755;49.736;8.734;2023-02-05T11:47:20;8.60;;;7.72;;
11447;SDS011;43755;49.736;8.734;2023-02-05T11:49:30;7.05;;;6.35;;
11447;SDS011;43755;49.736;8.734;2023-02-05T11:51:38;6.05;;;5.35;;
11447;SDS011;43755;49.736;8.734;2023-02-05T11:53:46;6.70;;;5.70;;
11447;SDS011;43755;49.736;8.734;2023-02-05T11:55:52;6.45;;;5.93;;
11447;SDS011;43755;49.736;8.734;2023-02-05T11:57:57;6.20;;;5.13;;
11447;SDS011;43755;49.736;8.734;2023-02-05T12:00:00;6.40;;;5.28;;
11447;SDS011;43755;49.736;8.734;2023-02-05T12:02:26;10.50;;;5.85;;
11447;SDS011;43755;49.736;8.734;2023-02-05T12:04:30;6.30;;;5.70;;
11447;SDS011;43755;49.736;8.734;2023-02-05T12:06:41;5.88;;;5.35;;
11447;SDS011;43755;49.736;8.734;2023-02-05T12:08:47;4.53;;;4.13;;
11447;SDS011;43755;49.736;8.734;2023-02-05T12:10:52;4.07;;;3.72;;
11447;SDS011;43755;49.736;8.734;2023-02-05T12:13:01;4.30;;;3.90;;
11447;SDS011;43755;49.736;8.734;2023-02-05T12:15:14;6.80;;;4.20;;
11447;SDS011;43755;49.736;8.734;2023-02-05T12:17:26;4.93;;;3.70;;
11447;SDS011;43755;49.736;8.734;2023-02-05T12:19:35;4.45;;;4.05;;
11447;SDS011;43755;49.736;8.734;2023-02-05T12:21:49;6.18;;;4.20;;
11447;SDS011;43755;49.736;8.734;2023-02-05T12:24:03;4.25;;;3.85;;
11447;SDS011;43755;49.736;8.734;2023-02-05T12:26:28;4.35;;;4.00;;
11447;SDS011;43755;49.736;8.734;2023-02-05T12:28:36;4.32;;;3.92;;
11447;SDS011;43755;49.736;8.734;2023-02-05T12:30:48;4.50;;;3.83;;
11447;SDS011;43755;49.736;8.734;2023-02-05T12:33:01;4.13;;;3.83;;